This is the latest recevied weather packets stored in our database for station/object KG5APU. If no packets are shown the sender has not sent any weather packets the latest 1 day(s).
| Time | Temp. | Humidity | Pressure | Rain* | Wind** | Luminosity | Snow |
|---|---|---|---|---|---|---|---|
| 1778016684 | 30.56° C | 58% | 1004.6 hPa | 0 mm | 2.68 m/s, 219° | 476 W/m² | - |
| 1778016084 | 31.11° C | 64% | 1004.8 hPa | 0 mm | 1.34 m/s, 168° | 652 W/m² | - |
| 1778015484 | 31.11° C | 62% | 1004.6 hPa | 0 mm | 1.34 m/s, 209° | 679 W/m² | - |
| 1778014883 | 31.11° C | 61% | 1004.9 hPa | 0 mm | 2.68 m/s, 199° | 617 W/m² | - |
| 1778014279 | 30.56° C | 63% | 1004.8 hPa | 0 mm | 3.13 m/s, 220° | 702 W/m² | - |
| 1778013673 | 30.56° C | 65% | 1005.4 hPa | 0 mm | 0.89 m/s, 165° | 786 W/m² | - |
| 1778013073 | 30° C | 66% | 1005.3 hPa | 0 mm | 3.13 m/s, 217° | 887 W/m² | - |
| 1778012470 | 30° C | 64% | 1005.3 hPa | 0 mm | 3.58 m/s, 229° | 869 W/m² | - |
| 1778011865 | 30° C | 68% | 1005.4 hPa | 0 mm | 2.68 m/s, 205° | 794 W/m² | - |
| 1778011265 | 30° C | 67% | 1005.4 hPa | 0 mm | 2.24 m/s, 214° | 930 W/m² | - |
| 1778010665 | 29.44° C | 69% | 1005.4 hPa | 0 mm | 1.79 m/s, 171° | 809 W/m² | - |
| 1778010063 | 28.89° C | 68% | 1005.6 hPa | 0 mm | 3.13 m/s, 206° | 275 W/m² | - |
| 1778009464 | 29.44° C | 68% | 1005.6 hPa | 0 mm | 1.34 m/s, 231° | 837 W/m² | - |
| 1778008859 | 28.89° C | 70% | 1005.4 hPa | 0 mm | 1.79 m/s, 226° | 921 W/m² | - |
| 1778008255 | 28.33° C | 69% | 1005.5 hPa | 0 mm | 3.13 m/s, 211° | 561 W/m² | - |
| 1778007652 | 28.33° C | 69% | 1005.6 hPa | 0 mm | 2.68 m/s, 211° | 751 W/m² | - |
| 1778007051 | 28.33° C | 70% | 1005.6 hPa | 0 mm | 2.24 m/s, 204° | 429 W/m² | - |
| 1778006450 | 27.78° C | 71% | 1005.7 hPa | 0 mm | 2.24 m/s, 165° | 394 W/m² | - |
| 1778005845 | 27.78° C | 72% | 1005.6 hPa | 0 mm | 2.24 m/s, 187° | 366 W/m² | - |
| 1778005243 | 27.78° C | 70% | 1006 hPa | 0 mm | 3.58 m/s, 211° | 355 W/m² | - |
| 1778004644 | 27.78° C | 70% | 1005.8 hPa | 0 mm | 3.58 m/s, 186° | 440 W/m² | - |
| 1778004043 | 28.33° C | 70% | 1005.8 hPa | 0 mm | 1.79 m/s, 157° | 476 W/m² | - |
| 1778003440 | 27.22° C | 73% | 1005.8 hPa | 0 mm | 1.34 m/s, 191° | 498 W/m² | - |
| 1778002839 | 27.22° C | 72% | 1005.9 hPa | 0 mm | 2.24 m/s, 184° | 464 W/m² | - |
| 1778002239 | 27.22° C | 72% | 1006 hPa | 0 mm | 2.68 m/s, 196° | 586 W/m² | - |
* Rain latest hour (hover to see other rain measurements)
** Current wind speed in m/s (hover to see current wind gust speed)